Time;durP1;ratioP1;P1;durP2;ratioP2;P2;SDS_P1;SDS_P2;PMS_P1;PMS_P2;Temp;Humidity;BMP_temperature;BMP_pressure;BME280_temperature;BME280_humidity;BME280_pressure;Samples;Min_cycle;Max_cycle;Signal;HPM_P1;HPM_P2
2023/06/30 00:01:27;;;;;;;90.47;86.28;;;;;;;24.47;41.20;101382.78;5096892;28;20105;-73
2023/06/30 00:03:53;;;;;;;90.65;86.65;;;;;;;24.44;41.46;101386.16;5095536;28;20035;-76
2023/06/30 00:06:19;;;;;;;88.38;84.18;;;;;;;24.41;41.40;101388.44;5096535;28;20036;-74
2023/06/30 00:08:44;;;;;;;91.30;87.30;;;;;;;24.40;41.42;101386.81;5096602;28;20089;-74
2023/06/30 00:11:10;;;;;;;87.47;83.55;;;;;;;24.37;41.16;101384.69;5094975;28;20032;-74
2023/06/30 00:13:35;;;;;;;90.10;85.97;;;;;;;24.35;41.29;101375.91;5095230;28;20036;-75
2023/06/30 00:16:01;;;;;;;89.35;85.35;;;;;;;24.33;41.24;101380.94;5095755;28;20043;-74
2023/06/30 00:18:27;;;;;;;91.25;86.90;;;;;;;24.31;41.20;101380.44;5096122;28;20056;-74
2023/06/30 00:20:54;;;;;;;88.13;84.05;;;;;;;24.29;41.11;101379.13;5095983;28;20030;-74
2023/06/30 00:23:20;;;;;;;87.85;83.85;;;;;;;24.28;41.29;101381.09;5095396;28;20424;-74
2023/06/30 00:25:45;;;;;;;85.88;82.07;;;;;;;24.26;41.29;101377.03;5096236;28;20471;-74
2023/06/30 00:28:11;;;;;;;88.05;83.85;;;;;;;24.24;41.20;101376.53;5096077;28;20035;-74
2023/06/30 00:30:38;;;;;;;87.88;83.95;;;;;;;24.22;41.55;101381.53;5094151;28;20115;-73
2023/06/30 00:33:03;;;;;;;89.55;85.25;;;;;;;24.18;41.04;101376.66;5095866;28;20044;-74
2023/06/30 00:35:29;;;;;;;86.43;82.32;;;;;;;24.17;41.22;101379.75;5095375;28;20039;-74
2023/06/30 00:37:55;;;;;;;87.43;83.53;;;;;;;24.15;41.28;101376.50;5095412;28;20096;-75
2023/06/30 00:40:20;;;;;;;88.63;84.63;;;;;;;24.11;41.24;101370.00;5094709;28;20036;-75
2023/06/30 00:42:46;;;;;;;89.22;85.15;;;;;;;24.10;41.30;101371.13;5077468;28;20115;-75
2023/06/30 00:45:11;;;;;;;84.90;80.88;;;;;;;24.07;40.91;101372.59;5096278;28;20040;-74
2023/06/30 00:47:37;;;;;;;85.55;81.65;;;;;;;24.05;41.21;101374.84;5094822;28;20043;-74
2023/06/30 00:50:03;;;;;;;84.95;81.07;;;;;;;24.03;41.16;101377.09;5095383;28;20044;-74
2023/06/30 00:52:29;;;;;;;86.28;82.45;;;;;;;24.01;41.37;101379.34;5095660;28;20039;-73
2023/06/30 00:54:54;;;;;;;86.90;82.70;;;;;;;23.98;41.23;101380.81;5077447;28;20028;-73
2023/06/30 00:57:19;;;;;;;87.38;83.53;;;;;;;23.96;41.49;101380.34;5094523;28;20060;-73
2023/06/30 00:59:45;;;;;;;85.30;81.40;;;;;;;23.95;41.40;101372.38;5094119;28;20134;-73
2023/06/30 01:02:27;;;;;;;90.20;86.03;;;;;;;23.93;40.98;101380.13;5095388;28;20113;-74
2023/06/30 01:05:06;;;;;;;86.63;82.68;;;;;;;23.90;41.20;101378.84;5093909;28;20060;-73
2023/06/30 01:07:37;;;;;;;86.32;82.28;;;;;;;23.87;40.86;101384.19;5095184;28;20028;-73
2023/06/30 01:10:20;;;;;;;84.53;80.40;;;;;;;23.84;41.44;101376.50;5095903;28;20020;-75
2023/06/30 01:12:46;;;;;;;90.45;86.25;;;;;;;23.82;40.92;101382.38;5094523;28;20089;-74
2023/06/30 01:15:14;;;;;;;85.25;81.45;;;;;;;23.79;40.96;101376.66;5095201;28;20119;-76
2023/06/30 01:17:51;;;;;;;84.60;80.70;;;;;;;23.77;41.20;101381.69;5095850;28;20047;-75
2023/06/30 01:20:19;;;;;;;83.05;79.38;;;;;;;23.74;41.18;101378.44;5094416;28;20032;-75
2023/06/30 01:22:54;;;;;;;84.68;80.82;;;;;;;23.72;41.07;101374.34;5093929;28;20032;-75
2023/06/30 01:25:26;;;;;;;85.55;81.30;;;;;;;23.70;40.98;101374.66;5094960;28;20456;-75
2023/06/30 01:27:53;;;;;;;83.35;79.50;;;;;;;23.67;41.45;101372.53;5094990;28;20028;-75
2023/06/30 01:30:19;;;;;;;85.40;81.40;;;;;;;23.66;40.97;101375.59;5095430;28;20036;-75
2023/06/30 01:32:45;;;;;;;84.82;80.82;;;;;;;23.64;41.22;101370.41;5093984;28;20054;-74
2023/06/30 01:35:12;;;;;;;83.82;79.93;;;;;;;23.62;41.21;101369.91;5094521;28;20051;-75
2023/06/30 01:37:37;;;;;;;85.65;81.75;;;;;;;23.61;40.84;101367.44;5094468;28;20175;-75
2023/06/30 01:40:06;;;;;;;82.70;78.72;;;;;;;23.58;41.27;101368.88;5094754;28;20076;-77
2023/06/30 01:42:32;;;;;;;84.20;80.35;;;;;;;23.56;40.87;101368.38;5092380;28;20395;-73
2023/06/30 01:44:59;;;;;;;83.03;79.22;;;;;;;23.53;41.27;101361.56;5095263;28;20028;-74
2023/06/30 01:47:25;;;;;;;83.25;78.57;;;;;;;23.51;41.09;101363.84;5094878;28;20039;-72
2023/06/30 01:49:51;;;;;;;81.03;77.22;;;;;;;23.49;40.88;101359.78;5094981;28;20024;-74
2023/06/30 01:52:17;;;;;;;85.15;81.05;;;;;;;23.48;41.30;101355.38;5094648;28;20032;-74
2023/06/30 01:54:43;;;;;;;81.72;77.82;;;;;;;23.44;41.39;101360.72;5095002;28;20027;-73
2023/06/30 01:57:08;;;;;;;79.38;75.72;;;;;;;23.43;40.83;101356.31;5093121;28;20442;-73
2023/06/30 01:59:34;;;;;;;82.22;78.22;;;;;;;23.41;41.35;101352.25;5094755;28;20076;-73
2023/06/30 02:01:59;;;;;;;82.13;77.85;;;;;;;23.39;40.82;101349.81;5094382;28;20451;-74
2023/06/30 02:04:24;;;;;;;81.90;77.72;;;;;;;23.37;41.25;101354.00;5093977;28;20028;-74
2023/06/30 02:06:50;;;;;;;81.43;77.63;;;;;;;23.34;41.24;101358.22;5076177;28;20157;-74
2023/06/30 02:09:16;;;;;;;82.63;78.82;;;;;;;23.32;41.29;101357.72;5075990;28;20076;-73
2023/06/30 02:11:41;;;;;;;84.57;80.60;;;;;;;23.28;41.28;101354.78;5093725;28;20055;-74
2023/06/30 02:14:06;;;;;;;80.00;75.97;;;;;;;23.27;41.33;101349.56;5094148;28;20024;-73
2023/06/30 02:16:32;;;;;;;83.72;79.65;;;;;;;23.25;41.08;101351.81;5094626;28;20024;-74
2023/06/30 02:18:57;;;;;;;80.65;76.85;;;;;;;23.22;40.93;101356.00;5094157;28;20035;-73
2023/06/30 02:21:25;;;;;;;81.78;77.80;;;;;;;23.21;40.97;101350.81;5092495;28;20038;-73
2023/06/30 02:23:50;;;;;;;82.05;78.43;;;;;;;23.17;41.07;101356.13;5092704;28;20024;-74
2023/06/30 02:26:16;;;;;;;82.07;77.85;;;;;;;23.15;40.96;101355.63;5094206;28;20031;-73
2023/06/30 02:28:41;;;;;;;82.60;78.60;;;;;;;23.12;40.84;101345.25;5094185;28;20432;-73
2023/06/30 02:31:07;;;;;;;80.28;76.68;;;;;;;23.11;41.15;101351.91;5092617;28;20093;-73
2023/06/30 02:33:32;;;;;;;78.47;74.82;;;;;;;23.09;41.06;101351.38;5092230;28;20036;-73
2023/06/30 02:35:58;;;;;;;82.85;78.90;;;;;;;23.07;40.81;101359.97;5093161;28;20038;-74
2023/06/30 02:38:23;;;;;;;81.15;76.95;;;;;;;23.05;40.77;101358.63;5092689;28;20540;-73
2023/06/30 02:40:48;;;;;;;80.63;76.70;;;;;;;23.02;40.99;101364.78;5094887;28;20031;-74
2023/06/30 02:43:14;;;;;;;84.22;79.95;;;;;;;22.99;40.85;101363.47;5076083;28;20471;-73
2023/06/30 02:45:39;;;;;;;79.55;75.95;;;;;;;22.98;41.27;101367.34;5093083;28;20471;-74
2023/06/30 02:48:05;;;;;;;84.20;80.03;;;;;;;22.96;41.11;101371.53;5092657;28;20042;-73
2023/06/30 02:50:31;;;;;;;81.68;77.70;;;;;;;22.94;41.19;101373.75;5092381;28;20376;-74
2023/06/30 02:53:00;;;;;;;78.07;73.78;;;;;;;22.92;40.92;101378.75;5093547;28;20054;-74
2023/06/30 02:55:26;;;;;;;80.80;76.63;;;;;;;22.88;40.94;101375.78;5093425;28;20040;-74
2023/06/30 02:57:52;;;;;;;78.78;75.25;;;;;;;22.88;41.21;101387.66;5091910;28;20397;-74
2023/06/30 03:00:17;;;;;;;79.25;75.55;;;;;;;22.85;41.18;101388.25;5093430;28;20516;-73
2023/06/30 03:02:43;;;;;;;79.70;75.90;;;;;;;22.82;40.94;101382.56;5092453;28;20518;-73
2023/06/30 03:05:09;;;;;;;77.07;73.38;;;;;;;22.80;40.83;101385.63;5092280;28;20055;-74
2023/06/30 03:07:35;;;;;;;77.43;73.90;;;;;;;22.79;41.40;101385.94;5093398;28;20452;-74
2023/06/30 03:10:00;;;;;;;76.35;72.78;;;;;;;22.76;41.27;101381.88;5094079;28;20139;-73
2023/06/30 03:12:26;;;;;;;79.88;75.97;;;;;;;22.74;40.81;101375.84;5092335;28;20063;-74
2023/06/30 03:14:52;;;;;;;78.07;74.07;;;;;;;22.73;41.46;101378.91;5093100;28;20040;-75
2023/06/30 03:17:17;;;;;;;81.43;77.55;;;;;;;22.69;41.17;101374.00;5093481;28;20033;-73
2023/06/30 03:19:43;;;;;;;80.78;76.63;;;;;;;22.68;41.17;101382.59;5092032;28;20468;-73
2023/06/30 03:22:08;;;;;;;77.63;73.93;;;;;;;22.66;40.79;101374.63;5092333;28;20068;-73
2023/06/30 03:24:34;;;;;;;74.68;71.10;;;;;;;22.64;41.15;101370.56;5093099;28;20028;-73
2023/06/30 03:26:59;;;;;;;76.50;72.72;;;;;;;22.62;41.16;101367.31;5093750;28;20047;-73
2023/06/30 03:29:25;;;;;;;80.20;76.32;;;;;;;22.60;41.05;101369.53;5093204;28;20149;-74
2023/06/30 03:31:51;;;;;;;76.53;72.90;;;;;;;22.56;40.99;101363.84;5092972;28;20028;-73
2023/06/30 03:34:16;;;;;;;77.93;74.20;;;;;;;22.56;41.11;101365.78;5058912;28;20032;-73
2023/06/30 03:36:41;;;;;;;75.05;71.60;;;;;;;22.53;41.28;101364.47;5091751;28;20130;-74
2023/06/30 03:39:07;;;;;;;79.10;75.30;;;;;;;22.51;41.13;101363.97;5091836;28;20028;-73
2023/06/30 03:41:32;;;;;;;78.60;74.32;;;;;;;22.48;40.90;101359.09;5091875;28;20093;-73
2023/06/30 03:43:58;;;;;;;78.55;74.85;;;;;;;22.45;41.24;101360.50;5091971;28;20384;-72
2023/06/30 03:46:23;;;;;;;76.60;72.90;;;;;;;22.44;41.15;101361.63;5091513;28;20107;-73
2023/06/30 03:48:49;;;;;;;77.45;73.28;;;;;;;22.41;41.32;101355.94;5091821;28;20388;-73
2023/06/30 03:51:14;;;;;;;75.95;71.80;;;;;;;22.40;41.14;101355.13;5093021;28;20101;-73
2023/06/30 03:53:43;;;;;;;77.10;73.30;;;;;;;22.38;41.10;101360.09;5091706;28;20070;-73
2023/06/30 03:56:09;;;;;;;77.53;73.70;;;;;;;22.35;41.13;101366.22;5091813;28;20402;-73
2023/06/30 03:58:34;;;;;;;75.78;72.05;;;;;;;22.34;40.90;101369.28;5092544;28;20051;-74
2023/06/30 04:01:00;;;;;;;75.45;71.45;;;;;;;22.32;41.28;101374.28;5091717;28;20357;-73
2023/06/30 04:03:25;;;;;;;74.97;71.47;;;;;;;22.30;40.75;101376.50;5091612;28;20439;-72
2023/06/30 04:05:51;;;;;;;75.85;71.72;;;;;;;22.27;40.90;101375.19;5094480;28;20042;-74
2023/06/30 04:08:16;;;;;;;74.97;71.43;;;;;;;22.24;40.90;101371.09;5096598;28;20028;-73
2023/06/30 04:10:43;;;;;;;76.28;72.50;;;;;;;22.23;40.84;101368.69;5096219;28;20032;-74
2023/06/30 04:13:09;;;;;;;78.05;74.28;;;;;;;22.20;41.23;101364.59;5095276;28;20042;-73
2023/06/30 04:15:34;;;;;;;74.82;71.03;;;;;;;22.18;41.15;101366.81;5096042;28;20027;-73
2023/06/30 04:18:00;;;;;;;73.65;70.00;;;;;;;22.16;40.85;101368.25;5096426;28;20107;-73
2023/06/30 04:20:26;;;;;;;76.18;72.28;;;;;;;22.13;40.93;101364.16;5095345;28;20067;-73
2023/06/30 04:22:51;;;;;;;76.43;72.80;;;;;;;22.12;41.21;101358.94;5078140;28;20093;-74
2023/06/30 04:25:17;;;;;;;75.50;71.88;;;;;;;22.11;41.08;101360.09;5095634;28;20028;-73
2023/06/30 04:27:43;;;;;;;76.53;72.43;;;;;;;22.08;41.20;101366.22;5094682;28;20534;-73
2023/06/30 04:30:08;;;;;;;75.35;71.85;;;;;;;22.06;40.96;101365.69;5094944;28;20028;-74
2023/06/30 04:32:34;;;;;;;74.38;70.80;;;;;;;22.04;41.27;101368.72;5094784;28;20040;-73
2023/06/30 04:35:00;;;;;;;77.57;73.53;;;;;;;22.00;41.21;101363.03;5096095;28;20058;-72
2023/06/30 04:37:31;;;;;;;77.28;73.78;;;;;;;21.99;41.22;101363.34;5095883;28;20032;-73
2023/06/30 04:39:59;;;;;;;73.35;69.90;;;;;;;21.96;40.98;101353.75;5094940;28;20032;-75
2023/06/30 04:42:27;;;;;;;72.80;69.32;;;;;;;21.95;40.82;101359.59;5095575;28;20032;-75
2023/06/30 04:44:52;;;;;;;74.72;71.22;;;;;;;21.92;41.07;101355.47;5096827;28;20040;-76
2023/06/30 04:47:18;;;;;;;72.25;68.80;;;;;;;21.91;41.18;101356.59;5095530;28;20484;-75
2023/06/30 04:49:44;;;;;;;74.43;71.03;;;;;;;21.89;41.07;101353.34;5094849;28;20024;-73
2023/06/30 04:52:09;;;;;;;75.80;71.70;;;;;;;21.88;41.27;101359.97;5095655;28;20059;-73
2023/06/30 04:54:35;;;;;;;75.22;71.43;;;;;;;21.85;41.07;101360.59;5094319;28;20032;-73
2023/06/30 04:57:00;;;;;;;72.40;69.00;;;;;;;21.83;40.91;101363.63;5094087;28;20028;-74
2023/06/30 04:59:25;;;;;;;72.47;69.13;;;;;;;21.81;41.42;101352.09;5095396;28;20135;-71
2023/06/30 05:01:51;;;;;;;74.15;70.55;;;;;;;21.79;41.32;101357.09;5095520;28;20055;-71
2023/06/30 05:04:16;;;;;;;71.05;67.47;;;;;;;21.77;40.88;101353.84;5094071;28;20059;-71
2023/06/30 05:06:42;;;;;;;74.95;71.15;;;;;;;21.75;41.09;101353.34;5095349;28;20058;-71
2023/06/30 05:09:07;;;;;;;71.78;68.25;;;;;;;21.75;41.00;101353.34;5095676;28;20036;-71
2023/06/30 05:11:33;;;;;;;71.55;68.10;;;;;;;21.72;40.90;101355.84;5077052;28;20040;-71
2023/06/30 05:13:58;;;;;;;72.15;68.75;;;;;;;21.71;41.48;101359.75;5095556;28;20039;-71
2023/06/30 05:16:23;;;;;;;72.80;68.80;;;;;;;21.70;41.15;101352.63;5095042;28;20024;-74
2023/06/30 05:18:49;;;;;;;71.90;68.47;;;;;;;21.69;41.38;101353.72;5095109;28;20481;-72
2023/06/30 05:21:14;;;;;;;71.38;67.97;;;;;;;21.67;41.15;101351.28;5093953;28;20586;-72
2023/06/30 05:23:40;;;;;;;72.63;69.13;;;;;;;21.67;41.29;101355.94;5094062;28;20032;-72
2023/06/30 05:26:06;;;;;;;68.93;65.55;;;;;;;21.66;41.20;101357.09;5094795;28;20054;-72
2023/06/30 05:28:32;;;;;;;72.70;68.97;;;;;;;21.65;41.50;101363.72;5060195;28;20030;-72
2023/06/30 05:30:57;;;;;;;69.90;66.47;;;;;;;21.65;41.38;101360.97;5093665;28;20031;-72
2023/06/30 05:33:22;;;;;;;70.53;67.35;;;;;;;21.64;41.44;101362.88;5093905;28;20388;-74
2023/06/30 05:35:48;;;;;;;71.05;67.68;;;;;;;21.64;41.01;101362.06;5095297;28;20056;-72
2023/06/30 05:38:13;;;;;;;71.65;68.15;;;;;;;21.64;41.26;101362.06;5094820;28;20028;-73
2023/06/30 05:40:39;;;;;;;71.00;67.45;;;;;;;21.64;41.10;101365.63;5094985;28;20093;-72
2023/06/30 05:43:04;;;;;;;72.03;68.28;;;;;;;21.65;41.30;101363.72;5094703;28;20115;-72
2023/06/30 05:45:30;;;;;;;70.95;67.57;;;;;;;21.64;41.31;101364.81;5094605;28;20062;-73
2023/06/30 05:47:56;;;;;;;70.80;67.25;;;;;;;21.64;41.43;101362.06;5094836;28;20422;-72
2023/06/30 05:50:23;;;;;;;69.65;66.20;;;;;;;21.64;41.05;101354.63;5093250;28;20054;-72
2023/06/30 05:52:48;;;;;;;71.13;67.63;;;;;;;21.65;41.49;101355.47;5076520;28;20083;-72
2023/06/30 05:55:14;;;;;;;70.50;67.05;;;;;;;21.66;41.46;101360.63;5093344;28;20471;-72
2023/06/30 05:57:39;;;;;;;69.22;66.03;;;;;;;21.66;41.23;101359.84;5094154;28;20086;-72
2023/06/30 06:00:07;;;;;;;70.40;67.07;;;;;;;21.67;41.13;101358.69;5095107;28;20111;-71
2023/06/30 06:02:33;;;;;;;70.82;67.20;;;;;;;21.67;41.49;101370.53;5094334;28;20024;-71
2023/06/30 06:04:59;;;;;;;70.50;67.28;;;;;;;21.67;41.44;101359.53;5094584;28;20032;-72
2023/06/30 06:07:24;;;;;;;69.40;66.00;;;;;;;21.67;40.98;101355.94;5076250;28;20059;-72
2023/06/30 06:09:49;;;;;;;70.47;67.20;;;;;;;21.68;41.55;101360.34;5076423;28;20114;-72
2023/06/30 06:12:15;;;;;;;69.50;66.30;;;;;;;21.69;41.04;101360.03;5093067;28;20097;-72
2023/06/30 06:14:41;;;;;;;71.65;68.15;;;;;;;21.69;41.21;101356.47;5092816;28;20032;-72
2023/06/30 06:17:06;;;;;;;70.85;67.65;;;;;;;21.70;40.94;101356.19;5092342;28;20103;-71
2023/06/30 06:19:32;;;;;;;71.05;67.57;;;;;;;21.71;41.04;101366.03;5094042;28;20036;-71
2023/06/30 06:21:57;;;;;;;69.80;66.22;;;;;;;21.71;41.41;101366.03;5094304;28;20032;-73
2023/06/30 06:24:23;;;;;;;69.25;66.05;;;;;;;21.73;41.20;101366.56;5093763;28;20093;-73
2023/06/30 06:26:48;;;;;;;69.80;66.55;;;;;;;21.74;41.45;101367.38;5092810;28;20028;-73
2023/06/30 06:29:18;;;;;;;71.30;67.85;;;;;;;21.75;41.32;101363.53;5092259;28;20028;-72
2023/06/30 06:31:45;;;;;;;71.18;67.85;;;;;;;21.76;41.14;101362.41;5092691;28;20040;-71
2023/06/30 06:34:11;;;;;;;69.47;65.90;;;;;;;21.77;41.52;101364.84;5093846;28;20043;-71
2023/06/30 06:36:37;;;;;;;71.20;67.53;;;;;;;21.79;41.52;101365.34;5092439;28;20028;-71
2023/06/30 06:39:03;;;;;;;70.93;67.78;;;;;;;21.81;41.49;101367.78;5092548;28;20032;-71
2023/06/30 06:41:28;;;;;;;70.40;67.10;;;;;;;21.83;41.81;101368.31;5093585;28;20080;-71
2023/06/30 06:43:53;;;;;;;70.28;67.07;;;;;;;21.85;41.67;101366.09;5094505;28;20456;-71
2023/06/30 06:46:19;;;;;;;70.25;67.13;;;;;;;21.87;41.34;101357.50;5094419;28;20165;-75
2023/06/30 06:48:44;;;;;;;72.93;69.47;;;;;;;21.90;41.34;101367.91;5093670;28;20039;-73
2023/06/30 06:51:10;;;;;;;71.22;67.72;;;;;;;21.94;41.44;101366.19;5093625;28;20032;-73
2023/06/30 06:53:35;;;;;;;69.95;66.68;;;;;;;21.95;41.38;101354.06;5093840;28;20032;-73
2023/06/30 06:56:02;;;;;;;71.25;67.95;;;;;;;21.98;41.29;101357.03;5093801;28;20031;-73
2023/06/30 06:58:35;;;;;;;75.38;71.78;;;;;;;22.01;41.52;101356.41;5093973;28;20075;-72
2023/06/30 07:01:00;;;;;;;72.53;69.03;;;;;;;22.03;41.64;101359.66;5093729;28;20024;-78
2023/06/30 07:03:26;;;;;;;72.78;69.47;;;;;;;22.07;41.86;101362.63;5092312;28;20433;-75
2023/06/30 07:05:51;;;;;;;74.63;71.05;;;;;;;22.08;42.29;101355.19;5093471;28;20185;-72
2023/06/30 07:08:21;;;;;;;71.35;68.10;;;;;;;22.10;41.77;101358.44;5093710;28;20081;-72
2023/06/30 07:10:47;;;;;;;71.57;68.28;;;;;;;22.13;41.83;101357.84;5092921;28;20032;-72
2023/06/30 07:13:16;;;;;;;75.65;72.10;;;;;;;22.16;42.10;101363.53;5093413;28;20047;-74
2023/06/30 07:15:42;;;;;;;76.57;72.82;;;;;;;22.19;41.99;101362.97;5093231;28;20032;-73
2023/06/30 07:18:07;;;;;;;73.53;70.03;;;;;;;22.23;42.08;101374.19;5091888;28;20078;-69
2023/06/30 07:20:33;;;;;;;74.60;70.80;;;;;;;22.25;42.08;101372.75;5093588;28;20483;-72
2023/06/30 07:22:58;;;;;;;78.32;74.25;;;;;;;22.29;42.45;101375.69;5093644;28;20038;-71
2023/06/30 07:25:25;;;;;;;77.18;72.82;;;;;;;22.33;42.06;101373.16;5092176;28;20069;-72
2023/06/30 07:27:53;;;;;;;75.50;72.10;;;;;;;22.36;42.03;101370.59;5093501;28;20066;-72
2023/06/30 07:30:28;;;;;;;78.10;74.40;;;;;;;22.41;42.55;101380.69;5093098;28;20028;-73
2023/06/30 07:32:54;;;;;;;78.63;75.05;;;;;;;22.44;42.64;101383.63;5093078;28;20143;-74
2023/06/30 07:35:21;;;;;;;77.80;74.20;;;;;;;22.47;42.28;101380.25;5092173;28;20471;-73
2023/06/30 07:37:47;;;;;;;74.45;71.05;;;;;;;22.54;42.34;101384.56;5092882;28;20032;-72
2023/06/30 07:40:13;;;;;;;78.65;75.15;;;;;;;22.59;42.08;101381.69;5092363;28;20039;-77
2023/06/30 07:42:39;;;;;;;78.28;74.55;;;;;;;22.63;42.50;101382.72;5096817;28;20059;-75
2023/06/30 07:45:23;;;;;;;80.57;76.88;;;;;;;22.68;42.63;101385.34;5095662;28;20060;-73
2023/06/30 07:47:48;;;;;;;78.53;74.72;;;;;;;22.73;42.21;101376.97;5096863;28;20032;-73
2023/06/30 07:50:15;;;;;;;80.15;76.35;;;;;;;22.77;42.63;101369.72;5097030;28;20472;-73
2023/06/30 07:52:48;;;;;;;79.82;76.15;;;;;;;22.83;42.45;101368.50;5095428;28;20056;-73
2023/06/30 07:55:16;;;;;;;79.93;76.10;;;;;;;22.89;42.42;101375.50;5096706;28;20486;-73
2023/06/30 07:57:42;;;;;;;79.18;75.65;;;;;;;22.95;42.24;101372.63;5095887;28;20064;-73
2023/06/30 08:00:10;;;;;;;80.45;76.88;;;;;;;23.00;42.58;101375.28;5095684;28;20115;-73
2023/06/30 08:02:36;;;;;;;79.47;75.88;;;;;;;23.05;42.00;101378.72;5097113;28;20043;-73
2023/06/30 08:05:02;;;;;;;81.65;77.95;;;;;;;23.11;41.92;101365.66;5095266;28;20032;-73
2023/06/30 08:07:28;;;;;;;83.97;80.13;;;;;;;23.19;42.08;101366.88;5096507;28;20166;-74
2023/06/30 08:09:53;;;;;;;86.28;82.18;;;;;;;23.25;41.72;101366.41;5095225;28;20086;-73
2023/06/30 08:12:19;;;;;;;84.93;81.13;;;;;;;23.32;41.58;101366.78;5095196;28;20039;-73
2023/06/30 08:14:48;;;;;;;83.25;79.55;;;;;;;23.39;41.92;101368.31;5095594;28;20036;-73
2023/06/30 08:17:13;;;;;;;82.60;78.72;;;;;;;23.45;42.34;101369.78;5095011;28;20039;-74
2023/06/30 08:19:41;;;;;;;85.28;81.28;;;;;;;23.52;42.10;101361.88;5096272;28;20029;-73
2023/06/30 08:22:07;;;;;;;83.57;79.87;;;;;;;23.60;41.85;101363.88;5095622;28;20452;-72
2023/06/30 08:24:32;;;;;;;85.43;81.47;;;;;;;23.67;41.52;101369.75;5095832;28;20039;-73
2023/06/30 08:26:58;;;;;;;84.25;80.50;;;;;;;23.74;41.28;101370.16;5096091;28;20036;-73
2023/06/30 08:29:23;;;;;;;82.05;78.15;;;;;;;23.81;41.43;101366.13;5096624;28;20033;-72
2023/06/30 08:31:49;;;;;;;89.55;85.13;;;;;;;23.88;41.52;101358.22;5095875;28;20060;-72
2023/06/30 08:34:14;;;;;;;87.75;83.85;;;;;;;23.95;41.00;101361.34;5095884;28;20429;-72
2023/06/30 08:36:39;;;;;;;87.97;84.07;;;;;;;24.03;40.96;101359.72;5077564;28;20399;-72
2023/06/30 08:39:05;;;;;;;88.97;85.07;;;;;;;24.09;40.73;101352.94;5095485;28;20071;-73
2023/06/30 08:41:33;;;;;;;90.75;86.65;;;;;;;24.17;41.08;101354.94;5094553;28;20111;-72
2023/06/30 08:43:59;;;;;;;89.72;83.63;;;;;;;24.24;41.25;101348.91;5096449;28;20089;-73
2023/06/30 08:46:27;;;;;;;91.32;87.35;;;;;;;24.31;41.13;101347.31;5096383;28;20042;-73
2023/06/30 08:48:53;;;;;;;92.57;88.40;;;;;;;24.38;41.13;101346.84;5095757;28;20032;-73
2023/06/30 08:51:19;;;;;;;92.78;88.63;;;;;;;24.46;40.76;101343.31;5095252;28;20120;-73
2023/06/30 08:53:46;;;;;;;90.35;86.25;;;;;;;24.52;40.43;101336.53;5096012;28;20027;-74
2023/06/30 08:56:13;;;;;;;90.85;86.55;;;;;;;24.62;40.62;101340.91;5095512;28;20392;-72
2023/06/30 08:58:39;;;;;;;92.13;88.05;;;;;;;24.69;40.21;101335.69;5077225;28;20480;-72
2023/06/30 09:01:05;;;;;;;95.80;91.50;;;;;;;24.77;39.58;101334.09;5077264;28;20032;-73
2023/06/30 09:03:31;;;;;;;88.90;84.53;;;;;;;24.86;39.67;101342.38;5095341;28;20028;-73
2023/06/30 09:05:58;;;;;;;91.18;87.15;;;;;;;24.92;39.73;101332.78;5094167;28;20437;-71
2023/06/30 09:08:41;;;;;;;86.80;83.03;;;;;;;25.01;39.96;101336.38;5095489;28;20039;-72
2023/06/30 09:11:08;;;;;;;92.30;87.90;;;;;;;25.08;39.70;101341.41;5095418;28;20537;-72
2023/06/30 09:13:35;;;;;;;91.68;87.47;;;;;;;25.15;39.52;101339.78;5094415;28;20040;-72
2023/06/30 09:16:06;;;;;;;91.13;87.03;;;;;;;25.23;39.60;101333.44;5095102;28;20494;-73
2023/06/30 09:18:33;;;;;;;98.18;93.68;;;;;;;25.29;39.44;101327.75;5095373;28;20051;-72
2023/06/30 09:20:59;;;;;;;93.13;89.13;;;;;;;25.35;39.21;101324.50;5094764;28;20392;-71
2023/06/30 09:23:26;;;;;;;91.95;87.85;;;;;;;25.42;39.07;101324.78;5093831;28;20043;-72
2023/06/30 09:25:52;;;;;;;95.90;91.60;;;;;;;25.48;39.26;101329.00;5095693;28;20035;-72
2023/06/30 09:28:17;;;;;;;95.63;91.47;;;;;;;25.57;38.68;101331.72;5094597;28;20450;-71
2023/06/30 09:30:45;;;;;;;99.45;94.85;;;;;;;25.64;38.99;101328.47;5095052;28;20040;-71
2023/06/30 09:33:14;;;;;;;96.03;91.75;;;;;;;25.71;38.84;101320.47;5095358;28;20107;-72
2023/06/30 09:35:40;;;;;;;;;;;;;;;25.78;39.42;101329.06;5095027;28;20398;-71
2023/06/30 09:38:24;;;;;;;98.68;94.18;;;;;;;25.84;39.05;101324.97;5093494;28;20424;-71
2023/06/30 09:40:50;;;;;;;103.47;98.70;;;;;;;25.90;38.90;101323.69;5094921;28;20032;-72
2023/06/30 09:43:20;;;;;;;97.57;93.07;;;;;;;25.97;39.11;101316.78;5094980;28;20032;-72
2023/06/30 09:45:57;;;;;;;101.22;96.63;;;;;;;26.02;38.70;101317.41;5093539;28;20110;-71
2023/06/30 09:48:38;;;;;;;104.45;99.95;;;;;;;26.11;38.66;101318.19;5093356;28;20123;-71
2023/06/30 09:51:06;;;;;;;101.13;96.68;;;;;;;26.18;38.77;101317.63;5094314;28;20093;-72
2023/06/30 09:53:35;;;;;;;;;;;;;;;26.24;38.71;101323.81;5093620;28;20036;-72
2023/06/30 09:56:01;;;;;;;100.93;96.30;;;;;;;26.29;39.22;101326.41;5094287;28;19955;-73
2023/06/30 09:58:26;;;;;;;101.57;96.97;;;;;;;26.34;38.86;101310.38;5092718;28;20161;-73
2023/06/30 10:00:53;;;;;;;103.20;98.70;;;;;;;26.42;38.54;101319.78;5094077;28;20052;-72
2023/06/30 10:03:18;;;;;;;105.35;100.72;;;;;;;26.49;38.30;101317.28;5093326;28;20505;-72
2023/06/30 10:05:45;;;;;;;107.03;102.28;;;;;;;26.57;38.07;101301.78;5092948;28;20365;-73
2023/06/30 10:08:12;;;;;;;108.40;103.65;;;;;;;26.64;38.08;101304.03;5092871;28;20414;-72
2023/06/30 10:10:41;;;;;;;108.40;103.50;;;;;;;26.70;38.28;101310.97;5094408;28;20028;-72
2023/06/30 10:13:06;;;;;;;108.00;103.32;;;;;;;26.76;38.35;101310.44;5092719;28;20028;-73
2023/06/30 10:15:32;;;;;;;106.95;102.05;;;;;;;26.83;37.87;101309.88;5094006;28;20031;-72
2023/06/30 10:17:58;;;;;;;110.63;105.78;;;;;;;26.90;37.68;101306.56;5094110;28;20036;-72
2023/06/30 10:20:24;;;;;;;106.75;101.85;;;;;;;26.96;37.34;101303.25;5094744;28;20085;-73
2023/06/30 10:22:51;;;;;;;109.88;104.88;;;;;;;27.04;37.48;101301.53;5093860;28;20028;-72
2023/06/30 10:25:18;;;;;;;110.60;105.70;;;;;;;27.10;37.27;101296.59;5092662;28;20123;-73
2023/06/30 10:27:46;;;;;;;107.90;103.10;;;;;;;27.16;37.21;101296.00;5093804;28;20028;-73
2023/06/30 10:30:12;;;;;;;114.13;108.95;;;;;;;27.23;37.34;101303.00;5094306;28;20043;-74
2023/06/30 10:32:39;;;;;;;110.85;105.97;;;;;;;27.29;37.04;101290.53;5094244;28;20052;-73
2023/06/30 10:35:09;;;;;;;119.93;114.68;;;;;;;27.35;36.65;101287.22;5092944;28;20043;-73
2023/06/30 10:37:35;;;;;;;116.15;111.15;;;;;;;27.43;36.76;101282.72;5093953;28;20032;-74
2023/06/30 10:40:05;;;;;;;112.53;107.50;;;;;;;27.48;36.90;101284.47;5094138;28;20028;-74
2023/06/30 10:42:36;;;;;;;113.20;108.30;;;;;;;27.53;36.79;101282.25;5092670;28;20140;-74
2023/06/30 10:45:02;;;;;;;114.68;109.25;;;;;;;27.58;37.16;101284.81;5093607;28;20482;-72
2023/06/30 10:47:28;;;;;;;116.47;111.20;;;;;;;27.63;36.95;101279.03;5092514;28;20032;-74
2023/06/30 10:49:54;;;;;;;113.15;107.93;;;;;;;27.69;36.56;101278.81;5093425;28;20050;-71
2023/06/30 10:52:27;;;;;;;119.47;114.38;;;;;;;27.74;36.83;101273.81;5092782;28;20464;-71
2023/06/30 10:54:53;;;;;;;122.68;117.10;;;;;;;27.79;36.58;101279.13;5092103;28;20066;-75
2023/06/30 10:57:34;;;;;;;113.00;107.95;;;;;;;27.86;36.29;101272.25;5093702;28;20052;-72
2023/06/30 11:00:11;;;;;;;120.28;115.18;;;;;;;27.91;36.20;101263.69;5076354;28;20048;-72
2023/06/30 11:02:49;;;;;;;118.00;112.88;;;;;;;27.96;36.80;101269.81;5093048;28;20192;-71
2023/06/30 11:05:22;;;;;;;119.65;114.22;;;;;;;28.01;36.23;101261.25;5093309;28;20050;-71